createdAt,value
2022-10-19T00:01:56.518Z,102319.25
2022-10-19T00:06:57.988Z,102312.09
2022-10-19T00:11:59.559Z,102309.44
2022-10-19T00:17:01.003Z,102308.63
2022-10-19T00:22:02.476Z,102304.25
2022-10-19T00:27:03.864Z,102307.81
2022-10-19T00:32:05.903Z,102302.50
2022-10-19T00:37:07.323Z,102298.06
2022-10-19T00:42:12.156Z,102298.94
2022-10-19T00:47:14.353Z,102312.25
2022-10-19T00:52:19.526Z,102312.25
2022-10-19T00:57:21.725Z,102307.88
2022-10-19T01:02:23.155Z,102305.25
2022-10-19T01:07:25.433Z,102301.69
2022-10-19T01:12:32.917Z,102301.66
2022-10-19T01:17:48.585Z,102294.63
2022-10-19T01:23:04.303Z,102289.34
2022-10-19T01:28:44.716Z,102283.13
2022-10-19T01:33:59.301Z,102284.94
2022-10-19T01:39:05.001Z,102284.06
2022-10-19T01:44:17.530Z,102269.94
2022-10-19T01:49:26.923Z,102261.88
2022-10-19T01:54:32.849Z,102268.09
2022-10-19T01:59:36.224Z,102273.47
2022-10-19T02:04:40.803Z,102273.47
2022-10-19T02:09:42.331Z,102264.63
2022-10-19T02:14:47.303Z,102262.03
2022-10-19T02:19:48.807Z,102245.19
2022-10-19T02:24:50.355Z,102257.59
2022-10-19T02:29:53.641Z,102241.69
2022-10-19T02:34:55.104Z,102246.97
2022-10-19T02:39:56.551Z,102237.19
2022-10-19T02:45:02.360Z,102227.47
2022-10-19T02:50:08.747Z,102234.59
2022-10-19T02:55:10.346Z,102219.53
2022-10-19T03:00:12.207Z,102221.28
2022-10-19T03:05:13.726Z,102216.91
2022-10-19T03:10:15.202Z,102220.44
2022-10-19T03:15:18.470Z,102218.66
2022-10-19T03:20:20.207Z,102217.78
2022-10-19T03:25:21.589Z,102228.38
2022-10-19T03:30:23.041Z,102228.41
2022-10-19T03:35:24.539Z,102231.06
2022-10-19T03:40:26.089Z,102238.16
2022-10-19T03:45:27.468Z,102237.25
2022-10-19T03:50:28.847Z,102237.25
2022-10-19T03:55:30.279Z,102230.22
2022-10-19T04:00:31.684Z,102237.28
2022-10-19T04:05:33.163Z,102238.16
2022-10-19T04:10:34.662Z,102238.19
2022-10-19T04:15:36.460Z,102235.50
2022-10-19T04:20:41.961Z,102229.31
2022-10-19T04:25:43.395Z,102234.63
2022-10-19T04:30:44.798Z,102231.06
2022-10-19T04:35:46.184Z,102223.13
2022-10-19T04:40:47.597Z,102222.25
2022-10-19T04:45:48.998Z,102218.66
2022-10-19T04:50:54.867Z,102221.34
2022-10-19T04:55:56.664Z,102219.56
2022-10-19T05:00:58.130Z,102234.63
2022-10-19T05:05:59.788Z,102224.88
2022-10-19T05:11:03.546Z,102230.19
2022-10-19T05:16:07.078Z,102232.84
2022-10-19T05:21:11.430Z,102227.53
2022-10-19T05:26:18.198Z,102221.34
2022-10-19T05:31:20.808Z,102215.16
2022-10-19T05:36:26.436Z,102208.97
2022-10-19T05:41:28.030Z,102198.34
2022-10-19T05:46:31.247Z,102200.97
2022-10-19T05:51:32.833Z,102200.97
2022-10-19T05:56:34.530Z,102188.59
2022-10-19T06:01:36.818Z,102189.47
2022-10-19T06:06:38.256Z,102193.00
2022-10-19T06:11:41.929Z,102191.25
2022-10-19T06:16:45.627Z,102207.19
2022-10-19T06:21:47.057Z,102200.09
2022-10-19T06:26:48.535Z,102198.34
2022-10-19T06:31:50.107Z,102184.16
2022-10-19T06:36:51.582Z,102195.66
2022-10-19T06:41:52.991Z,102193.88
2022-10-19T06:46:54.487Z,102193.91
2022-10-19T06:51:55.885Z,102193.88
2022-10-19T06:56:57.314Z,102201.88
2022-10-19T07:01:58.835Z,102196.53
2022-10-19T07:07:00.234Z,102208.03
2022-10-19T07:12:01.808Z,102208.03
2022-10-19T07:17:03.303Z,102198.28
2022-10-19T07:22:04.789Z,102206.19
2022-10-19T07:27:06.179Z,102210.63
2022-10-19T07:32:07.605Z,102202.66
2022-10-19T07:37:09.030Z,102202.59
2022-10-19T07:42:10.496Z,102199.06
2022-10-19T07:47:12.016Z,102211.41
2022-10-19T07:52:13.686Z,102213.19
2022-10-19T07:57:16.043Z,102206.09
2022-10-19T08:02:18.029Z,102195.41
2022-10-19T08:07:19.557Z,102188.28
2022-10-19T08:12:21.039Z,102188.25
2022-10-19T08:17:22.562Z,102200.59
2022-10-19T08:22:23.988Z,102189.88
2022-10-19T08:27:25.576Z,102192.56
2022-10-19T08:32:27.019Z,102184.41
2022-10-19T08:37:43.846Z,102175.47
2022-10-19T08:43:32.814Z,102173.50
2022-10-19T08:48:37.935Z,102159.19
2022-10-19T08:54:02.353Z,102158.22
2022-10-19T08:59:08.897Z,102158.97
2022-10-19T09:04:21.506Z,102150.00
2022-10-19T09:09:23.899Z,102155.16
2022-10-19T09:14:36.263Z,102159.44
2022-10-19T09:19:37.795Z,102159.25
2022-10-19T09:24:43.828Z,102136.88
2022-10-19T09:29:50.340Z,102144.72
2022-10-19T09:34:55.383Z,102145.34
2022-10-19T09:39:56.943Z,102137.28
2022-10-19T09:45:00.791Z,102130.81
2022-10-19T09:50:24.176Z,102136.78
2022-10-19T09:55:36.786Z,102139.19
2022-10-19T10:00:44.115Z,102126.63
2022-10-19T10:05:47.476Z,102129.88
2022-10-19T10:11:05.193Z,102117.31
2022-10-19T10:16:09.655Z,102108.31
2022-10-19T10:21:25.292Z,102111.50
2022-10-19T10:26:27.897Z,102110.50
2022-10-19T10:31:30.639Z,102098.78
2022-10-19T10:36:32.297Z,102102.16
2022-10-19T10:41:40.547Z,102089.53
2022-10-19T10:47:01.609Z,102088.38
2022-10-19T10:52:09.980Z,102087.16
2022-10-19T10:57:13.991Z,102065.47
2022-10-19T11:02:42.952Z,102061.81
2022-10-19T11:07:48.219Z,102051.03
2022-10-19T11:12:58.405Z,102037.41
2022-10-19T11:18:18.770Z,102045.81
2022-10-19T11:23:44.684Z,102032.47
2022-10-19T11:29:31.775Z,102035.59
2022-10-19T11:35:06.530Z,102019.31
2022-10-19T11:40:54.172Z,102017.28
2022-10-19T11:46:29.460Z,102009.78
2022-10-19T11:51:43.932Z,101996.88
2022-10-19T11:57:02.849Z,101993.25
2022-10-19T12:02:59.342Z,101982.53
2022-10-19T12:08:12.065Z,101974.44
2022-10-19T12:13:18.552Z,101960.41
2022-10-19T12:18:58.138Z,101946.03
2022-10-19T12:24:04.368Z,101940.44
2022-10-19T12:29:14.411Z,101937.16
2022-10-19T12:35:00.295Z,101932.31
2022-10-19T12:40:18.604Z,101923.16
2022-10-19T12:45:34.196Z,101913.53
2022-10-19T12:50:51.411Z,101901.47
2022-10-19T12:56:08.986Z,101897.75
2022-10-19T13:01:33.251Z,101876.38
2022-10-19T13:07:00.155Z,101860.16
2022-10-19T13:12:21.421Z,101847.47
2022-10-19T13:17:48.909Z,101841.13
2022-10-19T13:22:51.467Z,101841.78
2022-10-19T13:28:01.827Z,101836.66
2022-10-19T13:33:31.538Z,101829.09
2022-10-19T13:38:59.219Z,101826.94
2022-10-19T13:44:11.426Z,101828.03
2022-10-19T13:49:33.580Z,101818.66
2022-10-19T13:55:13.605Z,101809.03
2022-10-19T14:00:19.694Z,101813.66
2022-10-19T14:05:39.256Z,101801.19
2022-10-19T14:11:00.192Z,101798.53
2022-10-19T14:16:03.136Z,101797.78
2022-10-19T14:21:07.332Z,101793.53
2022-10-19T14:26:20.226Z,101786.66
2022-10-19T14:31:24.909Z,101776.63
2022-10-19T14:36:43.105Z,101787.06
2022-10-19T14:41:44.627Z,101780.19
2022-10-19T14:46:48.235Z,101767.34
2022-10-19T14:51:58.042Z,101757.03
2022-10-19T14:57:11.779Z,101747.19
2022-10-19T15:02:24.215Z,101741.56
2022-10-19T15:07:35.340Z,101729.88
2022-10-19T15:12:40.128Z,101728.63
2022-10-19T15:18:04.416Z,101722.88
2022-10-19T15:23:30.699Z,101728.22
2022-10-19T15:28:38.959Z,101712.97
2022-10-19T15:33:52.256Z,101705.75
2022-10-19T15:39:18.270Z,101704.22
2022-10-19T15:44:41.914Z,101692.38
2022-10-19T15:49:44.262Z,101688.91
2022-10-19T15:54:53.575Z,101689.63
2022-10-19T15:59:57.100Z,101692.19
2022-10-19T16:04:58.664Z,101677.63
2022-10-19T16:10:00.214Z,101675.41
2022-10-19T16:15:01.787Z,101666.13
2022-10-19T16:20:04.558Z,101658.78
2022-10-19T16:25:06.335Z,101643.38
2022-10-19T16:30:08.824Z,101653.59
2022-10-19T16:35:11.439Z,101647.81
2022-10-19T16:40:12.890Z,101644.47
2022-10-19T16:45:14.359Z,101638.09
2022-10-19T16:50:16.016Z,101640.78
2022-10-19T16:55:17.991Z,101639.16
2022-10-19T17:00:19.444Z,101640.91
2022-10-19T17:05:20.818Z,101628.00
2022-10-19T17:10:22.272Z,101633.28
2022-10-19T17:15:42.015Z,101629.97
2022-10-19T17:20:44.183Z,101623.97
2022-10-19T17:25:48.856Z,101612.63
2022-10-19T17:30:52.225Z,101607.69
2022-10-19T17:35:53.682Z,101607.44
2022-10-19T17:40:55.276Z,101614.38
2022-10-19T17:45:58.674Z,101605.41
2022-10-19T17:51:04.070Z,101607.53
2022-10-19T17:56:07.226Z,101611.13
2022-10-19T18:01:11.223Z,101606.66
2022-10-19T18:06:18.267Z,101607.78
2022-10-19T18:11:26.036Z,101613.00
2022-10-19T18:16:31.316Z,101612.94
2022-10-19T18:21:38.371Z,101613.94
2022-10-19T18:26:39.843Z,101614.56
2022-10-19T18:31:41.463Z,101604.56
2022-10-19T18:36:43.665Z,101600.94
2022-10-19T18:41:45.235Z,101610.88
2022-10-19T18:46:46.635Z,101598.50
2022-10-19T18:51:54.074Z,101596.91
2022-10-19T18:56:57.447Z,101591.66
2022-10-19T19:01:58.912Z,101565.16
2022-10-19T19:07:00.503Z,101575.06
2022-10-19T19:12:01.998Z,101565.41
2022-10-19T19:17:03.419Z,101555.66
2022-10-19T19:22:08.808Z,101548.84
2022-10-19T19:27:10.462Z,101550.66
2022-10-19T19:32:11.981Z,101560.44
2022-10-19T19:37:13.563Z,101557.66
2022-10-19T19:42:16.220Z,101534.56
2022-10-19T19:47:19.271Z,101531.13
2022-10-19T19:52:20.865Z,101521.53
2022-10-19T19:57:22.815Z,101520.72
2022-10-19T20:02:24.288Z,101506.56
2022-10-19T20:07:26.924Z,101502.47
2022-10-19T20:12:29.192Z,101512.91
2022-10-19T20:17:30.651Z,101507.03
2022-10-19T20:22:32.336Z,101499.16
2022-10-19T20:27:36.995Z,101492.78
2022-10-19T20:32:39.105Z,101484.38
2022-10-19T20:37:40.657Z,101486.13
2022-10-19T20:42:43.759Z,101475.44
2022-10-19T20:47:45.139Z,101465.97
2022-10-19T20:52:46.654Z,101462.50
2022-10-19T20:57:48.243Z,101451.75
2022-10-19T21:02:49.720Z,101460.56
2022-10-19T21:07:51.122Z,101450.06
2022-10-19T21:12:52.505Z,101445.50
2022-10-19T21:17:53.921Z,101448.41
2022-10-19T21:22:55.339Z,101439.41
2022-10-19T21:27:56.770Z,101437.19
2022-10-19T21:32:58.323Z,101432.72
2022-10-19T21:37:59.947Z,101437.16
2022-10-19T21:43:01.383Z,101428.28
2022-10-19T21:48:02.754Z,101432.50
2022-10-19T21:53:04.204Z,101436.97
2022-10-19T21:58:05.653Z,101428.97
2022-10-19T22:03:07.285Z,101418.59
2022-10-19T22:08:08.699Z,101409.84
2022-10-19T22:13:10.150Z,101394.84
2022-10-19T22:18:11.631Z,101385.84
2022-10-19T22:23:13.014Z,101376.09
2022-10-19T22:28:14.414Z,101363.78
2022-10-19T22:33:15.895Z,101355.66
2022-10-19T22:38:17.296Z,101354.91
2022-10-19T22:43:19.047Z,101349.72
2022-10-19T22:48:20.465Z,101334.69
2022-10-19T22:53:23.239Z,101331.31
2022-10-19T22:58:24.635Z,101321.44
2022-10-19T23:03:26.076Z,101316.97
2022-10-19T23:08:27.684Z,101309.03
2022-10-19T23:13:29.211Z,101294.69
2022-10-19T23:18:31.909Z,101288.66
2022-10-19T23:23:34.587Z,101277.00
2022-10-19T23:28:38.155Z,101267.13
2022-10-19T23:33:40.190Z,101275.34
2022-10-19T23:38:43.554Z,101273.28
2022-10-19T23:43:45.596Z,101267.25
2022-10-19T23:48:47.184Z,101264.38
2022-10-19T23:53:51.021Z,101259.47
2022-10-19T23:58:52.955Z,101244.47
